sensor_id;sensor_type;location;lat;lon;timestamp;P1;durP1;ratioP1;P2;durP2;ratioP2
68377;SDS011;55322;48.146;11.516;2023-02-28T00:02:09;7.37;;;2.30;;
68377;SDS011;55322;48.146;11.516;2023-02-28T00:04:35;5.83;;;1.97;;
68377;SDS011;55322;48.146;11.516;2023-02-28T00:07:00;7.03;;;2.03;;
68377;SDS011;55322;48.146;11.516;2023-02-28T00:09:25;8.23;;;2.03;;
68377;SDS011;55322;48.146;11.516;2023-02-28T00:11:50;6.03;;;1.93;;
68377;SDS011;55322;48.146;11.516;2023-02-28T00:14:16;7.23;;;2.13;;
68377;SDS011;55322;48.146;11.516;2023-02-28T00:16:41;6.47;;;1.60;;
68377;SDS011;55322;48.146;11.516;2023-02-28T00:19:06;6.97;;;1.80;;
68377;SDS011;55322;48.146;11.516;2023-02-28T00:21:32;6.73;;;2.13;;
68377;SDS011;55322;48.146;11.516;2023-02-28T00:23:57;7.20;;;2.20;;
68377;SDS011;55322;48.146;11.516;2023-02-28T00:26:22;6.67;;;2.00;;
68377;SDS011;55322;48.146;11.516;2023-02-28T00:28:48;6.60;;;2.22;;
68377;SDS011;55322;48.146;11.516;2023-02-28T00:31:13;8.75;;;2.15;;
68377;SDS011;55322;48.146;11.516;2023-02-28T00:33:39;6.43;;;2.30;;
68377;SDS011;55322;48.146;11.516;2023-02-28T00:36:08;7.33;;;2.43;;
68377;SDS011;55322;48.146;11.516;2023-02-28T00:38:35;5.40;;;1.85;;
68377;SDS011;55322;48.146;11.516;2023-02-28T00:41:01;6.63;;;2.22;;
68377;SDS011;55322;48.146;11.516;2023-02-28T00:43:29;6.30;;;1.95;;
68377;SDS011;55322;48.146;11.516;2023-02-28T00:45:55;7.33;;;2.37;;
68377;SDS011;55322;48.146;11.516;2023-02-28T00:48:20;8.20;;;2.03;;
68377;SDS011;55322;48.146;11.516;2023-02-28T00:50:48;6.70;;;1.98;;
68377;SDS011;55322;48.146;11.516;2023-02-28T00:53:14;6.43;;;2.03;;
68377;SDS011;55322;48.146;11.516;2023-02-28T00:55:39;5.80;;;2.05;;
68377;SDS011;55322;48.146;11.516;2023-02-28T00:58:04;6.93;;;2.20;;
68377;SDS011;55322;48.146;11.516;2023-02-28T01:00:30;9.23;;;2.40;;
68377;SDS011;55322;48.146;11.516;2023-02-28T01:02:55;6.80;;;2.40;;
68377;SDS011;55322;48.146;11.516;2023-02-28T01:05:21;6.53;;;2.33;;
68377;SDS011;55322;48.146;11.516;2023-02-28T01:07:46;7.38;;;1.83;;
68377;SDS011;55322;48.146;11.516;2023-02-28T01:10:11;5.70;;;2.00;;
68377;SDS011;55322;48.146;11.516;2023-02-28T01:12:37;7.63;;;2.20;;
68377;SDS011;55322;48.146;11.516;2023-02-28T01:15:02;7.73;;;2.50;;
68377;SDS011;55322;48.146;11.516;2023-02-28T01:17:28;6.68;;;2.03;;
68377;SDS011;55322;48.146;11.516;2023-02-28T01:19:54;6.60;;;2.30;;
68377;SDS011;55322;48.146;11.516;2023-02-28T01:22:20;6.65;;;2.80;;
68377;SDS011;55322;48.146;11.516;2023-02-28T01:24:46;6.57;;;2.30;;
68377;SDS011;55322;48.146;11.516;2023-02-28T01:27:11;7.67;;;2.80;;
68377;SDS011;55322;48.146;11.516;2023-02-28T01:29:36;7.13;;;2.33;;
68377;SDS011;55322;48.146;11.516;2023-02-28T01:32:02;5.87;;;2.10;;
68377;SDS011;55322;48.146;11.516;2023-02-28T01:34:27;6.30;;;2.37;;
68377;SDS011;55322;48.146;11.516;2023-02-28T01:36:52;7.70;;;2.27;;
68377;SDS011;55322;48.146;11.516;2023-02-28T01:39:18;8.13;;;2.63;;
68377;SDS011;55322;48.146;11.516;2023-02-28T01:41:43;8.07;;;2.67;;
68377;SDS011;55322;48.146;11.516;2023-02-28T01:47:12;8.30;;;2.60;;
68377;SDS011;55322;48.146;11.516;2023-02-28T01:49:38;8.75;;;2.65;;
68377;SDS011;55322;48.146;11.516;2023-02-28T01:52:04;6.95;;;2.47;;
68377;SDS011;55322;48.146;11.516;2023-02-28T01:54:30;7.77;;;2.40;;
68377;SDS011;55322;48.146;11.516;2023-02-28T01:57:06;7.05;;;2.50;;
68377;SDS011;55322;48.146;11.516;2023-02-28T02:02:11;8.17;;;2.40;;
68377;SDS011;55322;48.146;11.516;2023-02-28T02:04:59;9.93;;;2.92;;
68377;SDS011;55322;48.146;11.516;2023-02-28T02:07:26;7.65;;;2.90;;
68377;SDS011;55322;48.146;11.516;2023-02-28T02:09:59;7.82;;;2.47;;
68377;SDS011;55322;48.146;11.516;2023-02-28T02:12:38;9.13;;;2.63;;
68377;SDS011;55322;48.146;11.516;2023-02-28T02:15:16;8.27;;;2.60;;
68377;SDS011;55322;48.146;11.516;2023-02-28T02:18:22;7.85;;;2.55;;
68377;SDS011;55322;48.146;11.516;2023-02-28T02:32:45;7.47;;;2.20;;
68377;SDS011;55322;48.146;11.516;2023-02-28T02:35:24;6.20;;;2.30;;
68377;SDS011;55322;48.146;11.516;2023-02-28T02:40:30;7.00;;;2.65;;
68377;SDS011;55322;48.146;11.516;2023-02-28T02:43:04;7.03;;;2.90;;
68377;SDS011;55322;48.146;11.516;2023-02-28T02:45:38;7.82;;;2.83;;
68377;SDS011;55322;48.146;11.516;2023-02-28T02:48:11;6.65;;;2.33;;
68377;SDS011;55322;48.146;11.516;2023-02-28T02:50:45;7.95;;;3.00;;
68377;SDS011;55322;48.146;11.516;2023-02-28T02:53:14;9.38;;;2.65;;
68377;SDS011;55322;48.146;11.516;2023-02-28T02:55:44;7.13;;;2.50;;
68377;SDS011;55322;48.146;11.516;2023-02-28T02:58:14;8.85;;;3.03;;
68377;SDS011;55322;48.146;11.516;2023-02-28T03:00:48;7.55;;;2.50;;
68377;SDS011;55322;48.146;11.516;2023-02-28T03:03:18;6.00;;;2.13;;
68377;SDS011;55322;48.146;11.516;2023-02-28T03:05:54;7.18;;;2.90;;
68377;SDS011;55322;48.146;11.516;2023-02-28T03:08:20;6.50;;;2.47;;
68377;SDS011;55322;48.146;11.516;2023-02-28T03:10:46;8.35;;;2.85;;
68377;SDS011;55322;48.146;11.516;2023-02-28T03:19:13;8.43;;;2.80;;
68377;SDS011;55322;48.146;11.516;2023-02-28T03:24:27;7.88;;;2.80;;
68377;SDS011;55322;48.146;11.516;2023-02-28T03:26:58;7.40;;;2.75;;
68377;SDS011;55322;48.146;11.516;2023-02-28T03:29:34;10.40;;;3.60;;
68377;SDS011;55322;48.146;11.516;2023-02-28T03:34:39;8.90;;;3.50;;
68377;SDS011;55322;48.146;11.516;2023-02-28T03:37:13;9.68;;;3.78;;
68377;SDS011;55322;48.146;11.516;2023-02-28T03:39:43;7.55;;;2.78;;
68377;SDS011;55322;48.146;11.516;2023-02-28T03:42:14;8.65;;;3.63;;
68377;SDS011;55322;48.146;11.516;2023-02-28T03:44:46;8.88;;;3.72;;
68377;SDS011;55322;48.146;11.516;2023-02-28T03:47:24;8.75;;;3.35;;
68377;SDS011;55322;48.146;11.516;2023-02-28T03:52:26;8.00;;;2.88;;
68377;SDS011;55322;48.146;11.516;2023-02-28T03:54:56;8.43;;;3.60;;
68377;SDS011;55322;48.146;11.516;2023-02-28T03:57:38;6.80;;;2.30;;
68377;SDS011;55322;48.146;11.516;2023-02-28T04:02:42;8.50;;;3.43;;
68377;SDS011;55322;48.146;11.516;2023-02-28T04:05:07;11.23;;;4.13;;
68377;SDS011;55322;48.146;11.516;2023-02-28T04:07:33;9.67;;;3.43;;
68377;SDS011;55322;48.146;11.516;2023-02-28T04:09:58;12.47;;;4.23;;
68377;SDS011;55322;48.146;11.516;2023-02-28T04:12:24;12.40;;;5.22;;
68377;SDS011;55322;48.146;11.516;2023-02-28T04:14:49;11.17;;;4.60;;
68377;SDS011;55322;48.146;11.516;2023-02-28T04:17:15;12.23;;;4.25;;
68377;SDS011;55322;48.146;11.516;2023-02-28T04:19:41;9.17;;;4.23;;
68377;SDS011;55322;48.146;11.516;2023-02-28T04:22:07;11.40;;;4.57;;
68377;SDS011;55322;48.146;11.516;2023-02-28T04:24:33;10.27;;;4.53;;
68377;SDS011;55322;48.146;11.516;2023-02-28T04:26:59;10.70;;;4.57;;
68377;SDS011;55322;48.146;11.516;2023-02-28T04:29:28;9.10;;;4.10;;
68377;SDS011;55322;48.146;11.516;2023-02-28T04:31:57;10.38;;;4.30;;
68377;SDS011;55322;48.146;11.516;2023-02-28T04:34:24;11.82;;;4.72;;
68377;SDS011;55322;48.146;11.516;2023-02-28T04:36:51;11.63;;;4.90;;
68377;SDS011;55322;48.146;11.516;2023-02-28T04:39:19;11.25;;;5.05;;
68377;SDS011;55322;48.146;11.516;2023-02-28T04:41:45;10.48;;;4.72;;
68377;SDS011;55322;48.146;11.516;2023-02-28T04:44:11;10.50;;;4.45;;
68377;SDS011;55322;48.146;11.516;2023-02-28T04:46:36;11.60;;;4.90;;
68377;SDS011;55322;48.146;11.516;2023-02-28T04:49:02;11.33;;;4.83;;
68377;SDS011;55322;48.146;11.516;2023-02-28T04:51:27;13.47;;;5.23;;
68377;SDS011;55322;48.146;11.516;2023-02-28T04:53:53;10.38;;;4.40;;
68377;SDS011;55322;48.146;11.516;2023-02-28T04:56:18;13.90;;;5.13;;
68377;SDS011;55322;48.146;11.516;2023-02-28T04:58:44;11.70;;;5.55;;
68377;SDS011;55322;48.146;11.516;2023-02-28T05:01:17;11.50;;;4.73;;
68377;SDS011;55322;48.146;11.516;2023-02-28T05:03:43;11.85;;;5.10;;
68377;SDS011;55322;48.146;11.516;2023-02-28T05:06:09;12.27;;;5.13;;
68377;SDS011;55322;48.146;11.516;2023-02-28T05:08:36;12.00;;;4.93;;
68377;SDS011;55322;48.146;11.516;2023-02-28T05:11:02;12.90;;;5.07;;
68377;SDS011;55322;48.146;11.516;2023-02-28T05:13:28;13.20;;;5.15;;
68377;SDS011;55322;48.146;11.516;2023-02-28T05:15:54;10.52;;;5.05;;
68377;SDS011;55322;48.146;11.516;2023-02-28T05:18:20;14.40;;;6.37;;
68377;SDS011;55322;48.146;11.516;2023-02-28T05:20:45;12.20;;;5.05;;
68377;SDS011;55322;48.146;11.516;2023-02-28T05:23:11;12.32;;;5.80;;
68377;SDS011;55322;48.146;11.516;2023-02-28T05:25:37;11.07;;;5.33;;
68377;SDS011;55322;48.146;11.516;2023-02-28T05:28:03;13.77;;;5.95;;
68377;SDS011;55322;48.146;11.516;2023-02-28T05:30:29;12.57;;;6.00;;
68377;SDS011;55322;48.146;11.516;2023-02-28T05:32:56;12.97;;;6.73;;
68377;SDS011;55322;48.146;11.516;2023-02-28T05:35:22;13.88;;;6.18;;
68377;SDS011;55322;48.146;11.516;2023-02-28T05:37:48;14.30;;;6.10;;
68377;SDS011;55322;48.146;11.516;2023-02-28T05:40:14;14.30;;;6.13;;
68377;SDS011;55322;48.146;11.516;2023-02-28T05:42:40;12.25;;;5.53;;
68377;SDS011;55322;48.146;11.516;2023-02-28T05:45:06;12.70;;;6.07;;
68377;SDS011;55322;48.146;11.516;2023-02-28T05:47:32;11.27;;;4.55;;
68377;SDS011;55322;48.146;11.516;2023-02-28T05:49:57;12.48;;;6.15;;
68377;SDS011;55322;48.146;11.516;2023-02-28T05:52:23;15.07;;;6.93;;
68377;SDS011;55322;48.146;11.516;2023-02-28T05:54:48;14.93;;;7.27;;
68377;SDS011;55322;48.146;11.516;2023-02-28T05:57:14;15.70;;;7.40;;
68377;SDS011;55322;48.146;11.516;2023-02-28T05:59:39;13.48;;;5.68;;
68377;SDS011;55322;48.146;11.516;2023-02-28T06:02:07;13.07;;;6.17;;
68377;SDS011;55322;48.146;11.516;2023-02-28T06:04:37;15.55;;;7.18;;
68377;SDS011;55322;48.146;11.516;2023-02-28T06:07:02;15.80;;;6.70;;
68377;SDS011;55322;48.146;11.516;2023-02-28T06:09:28;14.63;;;6.77;;
68377;SDS011;55322;48.146;11.516;2023-02-28T06:11:54;14.05;;;7.07;;
68377;SDS011;55322;48.146;11.516;2023-02-28T06:14:19;14.53;;;6.47;;
68377;SDS011;55322;48.146;11.516;2023-02-28T06:16:45;16.20;;;7.90;;
68377;SDS011;55322;48.146;11.516;2023-02-28T06:19:11;13.02;;;6.30;;
68377;SDS011;55322;48.146;11.516;2023-02-28T06:21:37;13.93;;;7.30;;
68377;SDS011;55322;48.146;11.516;2023-02-28T06:24:03;13.88;;;7.50;;
68377;SDS011;55322;48.146;11.516;2023-02-28T06:26:28;17.40;;;6.73;;
68377;SDS011;55322;48.146;11.516;2023-02-28T06:28:54;13.57;;;7.10;;
68377;SDS011;55322;48.146;11.516;2023-02-28T06:31:19;20.17;;;7.65;;
68377;SDS011;55322;48.146;11.516;2023-02-28T06:33:46;17.35;;;8.43;;
68377;SDS011;55322;48.146;11.516;2023-02-28T06:36:12;13.97;;;7.13;;
68377;SDS011;55322;48.146;11.516;2023-02-28T06:38:38;17.02;;;8.45;;
68377;SDS011;55322;48.146;11.516;2023-02-28T06:41:06;16.63;;;8.23;;
68377;SDS011;55322;48.146;11.516;2023-02-28T06:43:33;16.30;;;6.75;;
68377;SDS011;55322;48.146;11.516;2023-02-28T06:46:03;17.53;;;7.80;;
68377;SDS011;55322;48.146;11.516;2023-02-28T06:48:29;14.10;;;6.85;;
68377;SDS011;55322;48.146;11.516;2023-02-28T06:51:02;16.57;;;9.13;;
68377;SDS011;55322;48.146;11.516;2023-02-28T06:53:29;15.52;;;8.25;;
68377;SDS011;55322;48.146;11.516;2023-02-28T06:55:54;16.00;;;8.03;;
68377;SDS011;55322;48.146;11.516;2023-02-28T06:58:19;16.83;;;7.80;;
68377;SDS011;55322;48.146;11.516;2023-02-28T07:00:45;19.48;;;8.35;;
68377;SDS011;55322;48.146;11.516;2023-02-28T07:03:11;18.90;;;9.40;;
68377;SDS011;55322;48.146;11.516;2023-02-28T07:05:38;24.15;;;7.70;;
68377;SDS011;55322;48.146;11.516;2023-02-28T07:08:04;16.17;;;7.88;;
68377;SDS011;55322;48.146;11.516;2023-02-28T07:10:31;16.58;;;7.68;;
68377;SDS011;55322;48.146;11.516;2023-02-28T07:12:57;16.73;;;8.10;;
68377;SDS011;55322;48.146;11.516;2023-02-28T07:15:23;17.65;;;8.02;;
68377;SDS011;55322;48.146;11.516;2023-02-28T07:17:48;16.93;;;8.80;;
68377;SDS011;55322;48.146;11.516;2023-02-28T07:20:13;17.60;;;9.20;;
68377;SDS011;55322;48.146;11.516;2023-02-28T07:22:39;17.17;;;8.70;;
68377;SDS011;55322;48.146;11.516;2023-02-28T07:25:04;18.63;;;9.13;;
68377;SDS011;55322;48.146;11.516;2023-02-28T07:27:30;17.52;;;9.85;;
68377;SDS011;55322;48.146;11.516;2023-02-28T07:29:55;17.50;;;8.77;;
68377;SDS011;55322;48.146;11.516;2023-02-28T07:32:21;18.30;;;9.00;;
68377;SDS011;55322;48.146;11.516;2023-02-28T07:34:47;15.07;;;7.30;;
68377;SDS011;55322;48.146;11.516;2023-02-28T07:37:13;16.63;;;8.43;;
68377;SDS011;55322;48.146;11.516;2023-02-28T07:39:39;16.70;;;7.93;;
68377;SDS011;55322;48.146;11.516;2023-02-28T07:42:08;20.75;;;7.88;;
68377;SDS011;55322;48.146;11.516;2023-02-28T07:44:36;19.08;;;9.23;;
68377;SDS011;55322;48.146;11.516;2023-02-28T07:47:05;17.60;;;8.10;;
68377;SDS011;55322;48.146;11.516;2023-02-28T07:49:35;13.40;;;6.68;;
68377;SDS011;55322;48.146;11.516;2023-02-28T07:52:01;14.73;;;6.68;;
68377;SDS011;55322;48.146;11.516;2023-02-28T07:54:28;15.60;;;8.32;;
68377;SDS011;55322;48.146;11.516;2023-02-28T07:56:54;16.30;;;8.82;;
68377;SDS011;55322;48.146;11.516;2023-02-28T07:59:19;17.50;;;9.20;;
68377;SDS011;55322;48.146;11.516;2023-02-28T08:01:44;18.47;;;8.40;;
68377;SDS011;55322;48.146;11.516;2023-02-28T08:04:10;17.17;;;8.03;;
68377;SDS011;55322;48.146;11.516;2023-02-28T08:06:35;17.77;;;9.43;;
68377;SDS011;55322;48.146;11.516;2023-02-28T08:09:00;17.37;;;8.87;;
68377;SDS011;55322;48.146;11.516;2023-02-28T08:11:26;15.13;;;7.57;;
68377;SDS011;55322;48.146;11.516;2023-02-28T08:13:51;18.93;;;9.53;;
68377;SDS011;55322;48.146;11.516;2023-02-28T08:16:17;18.50;;;9.60;;
68377;SDS011;55322;48.146;11.516;2023-02-28T08:18:46;19.92;;;9.85;;
68377;SDS011;55322;48.146;11.516;2023-02-28T08:21:12;15.52;;;8.20;;
68377;SDS011;55322;48.146;11.516;2023-02-28T08:23:38;19.87;;;9.10;;
68377;SDS011;55322;48.146;11.516;2023-02-28T08:26:04;15.87;;;9.03;;
68377;SDS011;55322;48.146;11.516;2023-02-28T08:28:29;18.20;;;9.35;;
68377;SDS011;55322;48.146;11.516;2023-02-28T08:30:54;19.33;;;9.83;;
68377;SDS011;55322;48.146;11.516;2023-02-28T08:33:20;14.60;;;7.73;;
68377;SDS011;55322;48.146;11.516;2023-02-28T08:35:45;19.87;;;9.57;;
68377;SDS011;55322;48.146;11.516;2023-02-28T08:38:11;21.17;;;10.03;;
68377;SDS011;55322;48.146;11.516;2023-02-28T08:40:36;17.70;;;9.43;;
68377;SDS011;55322;48.146;11.516;2023-02-28T08:43:01;19.77;;;10.40;;
68377;SDS011;55322;48.146;11.516;2023-02-28T08:45:27;18.13;;;9.60;;
68377;SDS011;55322;48.146;11.516;2023-02-28T08:47:53;18.30;;;9.77;;
68377;SDS011;55322;48.146;11.516;2023-02-28T08:50:20;21.45;;;10.10;;
68377;SDS011;55322;48.146;11.516;2023-02-28T08:52:45;16.27;;;8.00;;
68377;SDS011;55322;48.146;11.516;2023-02-28T08:55:11;20.07;;;9.07;;
68377;SDS011;55322;48.146;11.516;2023-02-28T08:57:36;22.92;;;10.10;;
68377;SDS011;55322;48.146;11.516;2023-02-28T09:00:02;19.40;;;10.15;;
68377;SDS011;55322;48.146;11.516;2023-02-28T09:02:29;19.35;;;10.07;;
68377;SDS011;55322;48.146;11.516;2023-02-28T09:04:56;20.25;;;9.68;;
68377;SDS011;55322;48.146;11.516;2023-02-28T09:07:23;19.20;;;9.75;;
68377;SDS011;55322;48.146;11.516;2023-02-28T09:09:48;20.87;;;9.73;;
68377;SDS011;55322;48.146;11.516;2023-02-28T09:12:20;16.05;;;8.80;;
68377;SDS011;55322;48.146;11.516;2023-02-28T09:14:49;20.08;;;9.65;;
68377;SDS011;55322;48.146;11.516;2023-02-28T09:17:15;19.93;;;9.37;;
68377;SDS011;55322;48.146;11.516;2023-02-28T09:19:41;15.73;;;8.63;;
68377;SDS011;55322;48.146;11.516;2023-02-28T09:22:07;15.98;;;8.02;;
68377;SDS011;55322;48.146;11.516;2023-02-28T09:24:33;16.88;;;8.57;;
68377;SDS011;55322;48.146;11.516;2023-02-28T09:26:58;14.83;;;7.57;;
68377;SDS011;55322;48.146;11.516;2023-02-28T09:29:23;20.70;;;9.10;;
68377;SDS011;55322;48.146;11.516;2023-02-28T09:31:49;15.30;;;7.73;;
68377;SDS011;55322;48.146;11.516;2023-02-28T09:34:15;15.40;;;8.65;;
68377;SDS011;55322;48.146;11.516;2023-02-28T09:36:42;16.42;;;8.60;;
68377;SDS011;55322;48.146;11.516;2023-02-28T09:39:07;19.40;;;8.30;;
68377;SDS011;55322;48.146;11.516;2023-02-28T09:41:52;16.10;;;8.70;;
68377;SDS011;55322;48.146;11.516;2023-02-28T09:44:25;18.92;;;9.77;;
68377;SDS011;55322;48.146;11.516;2023-02-28T09:46:53;17.93;;;7.87;;
68377;SDS011;55322;48.146;11.516;2023-02-28T09:49:25;15.15;;;8.13;;
68377;SDS011;55322;48.146;11.516;2023-02-28T09:52:01;15.05;;;7.72;;
68377;SDS011;55322;48.146;11.516;2023-02-28T09:54:34;18.92;;;9.38;;
68377;SDS011;55322;48.146;11.516;2023-02-28T09:57:08;15.70;;;8.02;;
68377;SDS011;55322;48.146;11.516;2023-02-28T10:08:34;13.05;;;7.00;;
68377;SDS011;55322;48.146;11.516;2023-02-28T10:11:19;17.45;;;9.45;;
68377;SDS011;55322;48.146;11.516;2023-02-28T10:16:22;18.40;;;8.70;;
68377;SDS011;55322;48.146;11.516;2023-02-28T10:18:54;17.88;;;9.50;;
68377;SDS011;55322;48.146;11.516;2023-02-28T10:21:28;17.95;;;9.02;;
68377;SDS011;55322;48.146;11.516;2023-02-28T10:24:01;19.85;;;10.30;;
68377;SDS011;55322;48.146;11.516;2023-02-28T10:26:31;17.83;;;9.33;;
68377;SDS011;55322;48.146;11.516;2023-02-28T10:28:57;19.52;;;9.90;;
68377;SDS011;55322;48.146;11.516;2023-02-28T10:31:23;19.85;;;9.43;;
68377;SDS011;55322;48.146;11.516;2023-02-28T10:33:49;18.60;;;8.50;;
68377;SDS011;55322;48.146;11.516;2023-02-28T10:36:15;16.20;;;8.87;;
68377;SDS011;55322;48.146;11.516;2023-02-28T10:38:43;17.30;;;9.18;;
68377;SDS011;55322;48.146;11.516;2023-02-28T10:41:30;16.60;;;9.40;;
68377;SDS011;55322;48.146;11.516;2023-02-28T10:44:20;17.17;;;9.25;;
68377;SDS011;55322;48.146;11.516;2023-02-28T10:46:47;19.25;;;9.00;;
68377;SDS011;55322;48.146;11.516;2023-02-28T10:49:14;17.13;;;9.23;;
68377;SDS011;55322;48.146;11.516;2023-02-28T10:51:44;15.90;;;8.65;;
68377;SDS011;55322;48.146;11.516;2023-02-28T10:54:16;17.98;;;9.25;;
68377;SDS011;55322;48.146;11.516;2023-02-28T10:59:50;14.32;;;7.55;;
68377;SDS011;55322;48.146;11.516;2023-02-28T11:04:54;17.92;;;9.27;;
68377;SDS011;55322;48.146;11.516;2023-02-28T11:07:20;17.90;;;9.40;;
68377;SDS011;55322;48.146;11.516;2023-02-28T11:09:51;18.05;;;9.40;;
68377;SDS011;55322;48.146;11.516;2023-02-28T11:15:33;15.63;;;8.70;;
68377;SDS011;55322;48.146;11.516;2023-02-28T11:17:52;17.48;;;9.23;;
68377;SDS011;55322;48.146;11.516;2023-02-28T11:20:21;15.95;;;8.73;;
68377;SDS011;55322;48.146;11.516;2023-02-28T11:22:49;18.25;;;8.70;;
68377;SDS011;55322;48.146;11.516;2023-02-28T11:25:19;16.25;;;9.05;;
68377;SDS011;55322;48.146;11.516;2023-02-28T11:27:50;13.50;;;6.53;;
68377;SDS011;55322;48.146;11.516;2023-02-28T11:30:31;17.80;;;9.18;;
68377;SDS011;55322;48.146;11.516;2023-02-28T11:33:23;17.42;;;9.13;;
68377;SDS011;55322;48.146;11.516;2023-02-28T11:36:11;14.02;;;7.05;;
68377;SDS011;55322;48.146;11.516;2023-02-28T11:38:42;16.65;;;8.68;;
68377;SDS011;55322;48.146;11.516;2023-02-28T11:49:17;18.20;;;8.95;;
68377;SDS011;55322;48.146;11.516;2023-02-28T11:52:05;22.23;;;8.70;;
68377;SDS011;55322;48.146;11.516;2023-02-28T11:54:49;17.65;;;9.65;;
68377;SDS011;55322;48.146;11.516;2023-02-28T11:58:17;13.30;;;7.63;;
68377;SDS011;55322;48.146;11.516;2023-02-28T12:16:53;14.27;;;7.05;;
68377;SDS011;55322;48.146;11.516;2023-02-28T12:19:43;15.65;;;8.20;;
68377;SDS011;55322;48.146;11.516;2023-02-28T12:28:32;16.45;;;8.93;;
68377;SDS011;55322;48.146;11.516;2023-02-28T12:31:01;19.30;;;8.82;;
68377;SDS011;55322;48.146;11.516;2023-02-28T12:33:38;14.23;;;7.90;;
68377;SDS011;55322;48.146;11.516;2023-02-28T12:36:13;16.58;;;8.80;;
68377;SDS011;55322;48.146;11.516;2023-02-28T12:39:30;13.98;;;7.72;;
68377;SDS011;55322;48.146;11.516;2023-02-28T12:41:37;15.85;;;8.38;;
68377;SDS011;55322;48.146;11.516;2023-02-28T12:44:15;17.00;;;8.55;;
68377;SDS011;55322;48.146;11.516;2023-02-28T12:46:45;14.88;;;8.00;;
68377;SDS011;55322;48.146;11.516;2023-02-28T12:49:19;15.38;;;7.22;;
68377;SDS011;55322;48.146;11.516;2023-02-28T12:51:50;15.65;;;7.80;;
68377;SDS011;55322;48.146;11.516;2023-02-28T12:56:54;15.25;;;7.32;;
68377;SDS011;55322;48.146;11.516;2023-02-28T12:59:34;16.30;;;7.68;;
68377;SDS011;55322;48.146;11.516;2023-02-28T13:05:10;13.40;;;7.28;;
68377;SDS011;55322;48.146;11.516;2023-02-28T13:10:44;15.25;;;6.43;;
68377;SDS011;55322;48.146;11.516;2023-02-28T13:13:15;14.70;;;7.50;;
68377;SDS011;55322;48.146;11.516;2023-02-28T13:15:56;11.70;;;6.25;;
68377;SDS011;55322;48.146;11.516;2023-02-28T13:20:57;14.07;;;6.95;;
68377;SDS011;55322;48.146;11.516;2023-02-28T13:26:03;14.02;;;7.28;;
68377;SDS011;55322;48.146;11.516;2023-02-28T13:31:15;17.20;;;7.78;;
68377;SDS011;55322;48.146;11.516;2023-02-28T13:38:51;12.93;;;6.83;;
68377;SDS011;55322;48.146;11.516;2023-02-28T13:41:40;14.55;;;6.97;;
68377;SDS011;55322;48.146;11.516;2023-02-28T13:49:32;12.57;;;7.53;;
68377;SDS011;55322;48.146;11.516;2023-02-28T13:54:45;12.70;;;6.95;;
68377;SDS011;55322;48.146;11.516;2023-02-28T14:05:24;13.57;;;7.50;;
68377;SDS011;55322;48.146;11.516;2023-02-28T14:07:58;13.93;;;7.50;;
68377;SDS011;55322;48.146;11.516;2023-02-28T14:10:30;13.27;;;7.30;;
68377;SDS011;55322;48.146;11.516;2023-02-28T14:13:00;16.02;;;6.90;;
68377;SDS011;55322;48.146;11.516;2023-02-28T14:18:18;14.03;;;7.13;;
68377;SDS011;55322;48.146;11.516;2023-02-28T14:20:47;13.70;;;7.78;;
68377;SDS011;55322;48.146;11.516;2023-02-28T14:26:01;15.55;;;7.47;;
68377;SDS011;55322;48.146;11.516;2023-02-28T14:31:07;15.43;;;8.13;;
68377;SDS011;55322;48.146;11.516;2023-02-28T14:36:25;14.00;;;7.80;;
68377;SDS011;55322;48.146;11.516;2023-02-28T14:38:57;14.82;;;7.80;;
68377;SDS011;55322;48.146;11.516;2023-02-28T14:41:38;13.98;;;6.15;;
68377;SDS011;55322;48.146;11.516;2023-02-28T14:46:48;13.90;;;6.82;;
68377;SDS011;55322;48.146;11.516;2023-02-28T14:49:38;14.48;;;8.13;;
68377;SDS011;55322;48.146;11.516;2023-02-28T14:52:05;15.38;;;7.70;;
68377;SDS011;55322;48.146;11.516;2023-02-28T14:54:37;15.73;;;7.82;;
68377;SDS011;55322;48.146;11.516;2023-02-28T14:57:03;13.97;;;7.50;;
68377;SDS011;55322;48.146;11.516;2023-02-28T14:59:30;14.77;;;7.18;;
68377;SDS011;55322;48.146;11.516;2023-02-28T15:05:01;14.40;;;7.57;;
68377;SDS011;55322;48.146;11.516;2023-02-28T15:07:47;14.00;;;7.40;;
68377;SDS011;55322;48.146;11.516;2023-02-28T15:12:45;13.38;;;7.25;;
68377;SDS011;55322;48.146;11.516;2023-02-28T15:15:16;13.48;;;7.47;;
68377;SDS011;55322;48.146;11.516;2023-02-28T15:17:45;14.93;;;7.55;;
68377;SDS011;55322;48.146;11.516;2023-02-28T15:20:15;15.57;;;6.50;;
68377;SDS011;55322;48.146;11.516;2023-02-28T15:22:41;11.68;;;6.57;;
68377;SDS011;55322;48.146;11.516;2023-02-28T15:25:27;15.18;;;7.43;;
68377;SDS011;55322;48.146;11.516;2023-02-28T15:27:53;15.93;;;7.23;;
68377;SDS011;55322;48.146;11.516;2023-02-28T15:30:26;14.10;;;7.10;;
68377;SDS011;55322;48.146;11.516;2023-02-28T15:35:41;15.10;;;6.70;;
68377;SDS011;55322;48.146;11.516;2023-02-28T15:38:22;14.82;;;7.45;;
68377;SDS011;55322;48.146;11.516;2023-02-28T15:40:52;14.07;;;7.20;;
68377;SDS011;55322;48.146;11.516;2023-02-28T15:43:27;12.73;;;6.68;;
68377;SDS011;55322;48.146;11.516;2023-02-28T15:46:05;13.65;;;7.07;;
68377;SDS011;55322;48.146;11.516;2023-02-28T15:51:18;15.40;;;7.70;;
68377;SDS011;55322;48.146;11.516;2023-02-28T15:56:33;13.70;;;7.15;;
68377;SDS011;55322;48.146;11.516;2023-02-28T15:59:07;16.27;;;7.10;;
68377;SDS011;55322;48.146;11.516;2023-02-28T16:01:38;14.98;;;7.28;;
68377;SDS011;55322;48.146;11.516;2023-02-28T16:04:14;13.25;;;7.30;;
68377;SDS011;55322;48.146;11.516;2023-02-28T16:06:45;13.93;;;7.38;;
68377;SDS011;55322;48.146;11.516;2023-02-28T16:09:23;14.15;;;7.45;;
68377;SDS011;55322;48.146;11.516;2023-02-28T16:11:49;15.03;;;7.40;;
68377;SDS011;55322;48.146;11.516;2023-02-28T16:14:17;13.65;;;6.90;;
68377;SDS011;55322;48.146;11.516;2023-02-28T16:16:45;15.57;;;7.63;;
68377;SDS011;55322;48.146;11.516;2023-02-28T16:19:13;11.27;;;5.80;;
68377;SDS011;55322;48.146;11.516;2023-02-28T16:21:38;14.40;;;7.50;;
68377;SDS011;55322;48.146;11.516;2023-02-28T16:24:04;15.60;;;7.55;;
68377;SDS011;55322;48.146;11.516;2023-02-28T16:26:29;13.63;;;6.87;;
68377;SDS011;55322;48.146;11.516;2023-02-28T16:28:55;16.50;;;8.27;;
68377;SDS011;55322;48.146;11.516;2023-02-28T16:31:20;17.52;;;8.23;;
68377;SDS011;55322;48.146;11.516;2023-02-28T16:33:46;15.68;;;7.13;;
68377;SDS011;55322;48.146;11.516;2023-02-28T16:36:19;12.77;;;6.77;;
68377;SDS011;55322;48.146;11.516;2023-02-28T16:38:46;14.98;;;7.10;;
68377;SDS011;55322;48.146;11.516;2023-02-28T16:41:13;13.93;;;7.55;;
68377;SDS011;55322;48.146;11.516;2023-02-28T16:43:44;16.80;;;7.32;;
68377;SDS011;55322;48.146;11.516;2023-02-28T16:46:11;13.70;;;7.13;;
68377;SDS011;55322;48.146;11.516;2023-02-28T16:48:37;16.92;;;8.30;;
68377;SDS011;55322;48.146;11.516;2023-02-28T16:51:04;17.67;;;7.97;;
68377;SDS011;55322;48.146;11.516;2023-02-28T16:53:30;14.90;;;7.57;;
68377;SDS011;55322;48.146;11.516;2023-02-28T16:55:55;16.10;;;7.77;;
68377;SDS011;55322;48.146;11.516;2023-02-28T16:58:20;15.23;;;7.03;;
68377;SDS011;55322;48.146;11.516;2023-02-28T17:00:48;18.67;;;8.00;;
68377;SDS011;55322;48.146;11.516;2023-02-28T17:03:24;15.83;;;7.67;;
68377;SDS011;55322;48.146;11.516;2023-02-28T17:05:52;14.88;;;7.50;;
68377;SDS011;55322;48.146;11.516;2023-02-28T17:08:18;16.77;;;7.60;;